createdAt,value
2019-05-12T00:04:15.384Z,75.77
2019-05-12T00:09:18.982Z,76.98
2019-05-12T00:14:22.542Z,78.14
2019-05-12T00:19:28.343Z,78.17
2019-05-12T00:24:32.771Z,78.02
2019-05-12T00:29:37.817Z,78.30
2019-05-12T00:34:41.372Z,78.71
2019-05-12T00:39:47.902Z,78.88
2019-05-12T00:44:51.419Z,79.13
2019-05-12T00:49:54.860Z,79.80
2019-05-12T00:54:58.631Z,80.30
2019-05-12T01:00:02.356Z,80.73
2019-05-12T01:05:08.591Z,80.43
2019-05-12T01:10:12.661Z,79.80
2019-05-12T01:15:17.824Z,80.37
2019-05-12T01:20:21.448Z,80.11
2019-05-12T01:25:24.868Z,80.11
2019-05-12T01:30:28.706Z,81.01
2019-05-12T01:35:32.243Z,80.84
2019-05-12T01:40:35.763Z,80.69
2019-05-12T01:45:39.177Z,81.16
2019-05-12T01:50:42.600Z,80.59
2019-05-12T01:55:48.341Z,79.51
2019-05-12T02:00:51.166Z,79.00
2019-05-12T02:05:57.939Z,79.13
2019-05-12T02:11:19.450Z,78.97
2019-05-12T02:16:22.970Z,78.83
2019-05-12T02:21:28.077Z,79.36
2019-05-12T02:26:31.626Z,79.36
2019-05-12T02:31:35.054Z,80.63
2019-05-12T02:36:38.615Z,80.79
2019-05-12T02:41:44.700Z,80.82
2019-05-12T02:46:47.280Z,80.03
2019-05-12T02:51:50.800Z,79.77
2019-05-12T02:56:57.899Z,79.94
2019-05-12T03:02:05.089Z,80.53
2019-05-12T03:07:07.648Z,81.30
2019-05-12T03:12:14.239Z,81.69
2019-05-12T03:17:16.445Z,80.82
2019-05-12T03:22:19.949Z,81.68
2019-05-12T03:27:25.705Z,81.51
2019-05-12T03:32:28.901Z,81.39
2019-05-12T03:37:35.190Z,81.17
2019-05-12T03:42:37.493Z,80.46
2019-05-12T03:47:45.484Z,81.14
2019-05-12T03:52:47.991Z,81.36
2019-05-12T03:57:51.441Z,80.86
2019-05-12T04:02:55.624Z,80.74
2019-05-12T04:07:59.970Z,80.94
2019-05-12T04:13:04.586Z,80.59
2019-05-12T04:18:08.354Z,81.19
2019-05-12T04:23:14.981Z,80.06
2019-05-12T04:28:16.987Z,81.13
2019-05-12T04:33:20.422Z,80.77
2019-05-12T04:38:24.872Z,80.97
2019-05-12T04:43:30.256Z,81.53
2019-05-12T04:48:35.815Z,81.51
2019-05-12T04:53:38.901Z,81.97
2019-05-12T04:58:45.026Z,82.63
2019-05-12T05:03:47.642Z,81.85
2019-05-12T05:08:54.396Z,83.38
2019-05-12T05:13:57.901Z,82.98
2019-05-12T05:19:03.643Z,83.26
2019-05-12T05:24:07.192Z,83.01
2019-05-12T05:29:10.692Z,82.69
2019-05-12T05:34:14.874Z,82.58
2019-05-12T05:39:19.168Z,82.52
2019-05-12T05:44:24.163Z,81.56
2019-05-12T05:49:27.624Z,80.35
2019-05-12T05:54:35.590Z,80.16
2019-05-12T05:59:37.021Z,80.22
2019-05-12T06:04:45.488Z,79.32
2019-05-12T06:09:46.272Z,79.21
2019-05-12T06:14:55.228Z,78.64
2019-05-12T06:19:54.901Z,78.77
2019-05-12T06:24:58.992Z,78.37
2019-05-12T06:30:06.315Z,79.03
2019-05-12T06:35:09.663Z,79.78
2019-05-12T06:40:14.113Z,79.64
2019-05-12T06:45:17.844Z,79.05
2019-05-12T06:50:23.598Z,78.80
2019-05-12T06:55:28.543Z,77.60
2019-05-12T07:00:32.622Z,77.02
2019-05-12T07:05:38.545Z,74.08
2019-05-12T07:10:44.325Z,74.58
2019-05-12T07:15:47.245Z,70.42
2019-05-12T07:20:50.746Z,69.25
2019-05-12T07:25:54.997Z,68.35
2019-05-12T07:30:58.945Z,67.73
2019-05-12T07:36:06.284Z,65.93
2019-05-12T07:41:11.107Z,67.10
2019-05-12T07:46:17.258Z,65.92
2019-05-12T07:51:24.210Z,63.12
2019-05-12T07:56:32.901Z,61.22
2019-05-12T08:01:43.893Z,60.18
2019-05-12T08:06:42.240Z,60.09
2019-05-12T08:11:45.420Z,56.82
2019-05-12T08:16:48.843Z,57.06
2019-05-12T08:21:55.263Z,57.96
2019-05-12T08:27:03.126Z,59.36
2019-05-12T08:32:04.003Z,58.46
2019-05-12T08:37:07.607Z,58.61
2019-05-12T08:42:11.296Z,56.10
2019-05-12T08:47:15.311Z,52.80
2019-05-12T08:52:18.704Z,49.37
2019-05-12T08:57:24.094Z,52.26
2019-05-12T09:02:27.330Z,54.05
2019-05-12T09:07:35.839Z,53.35
2019-05-12T09:12:36.396Z,48.75
2019-05-12T09:17:49.216Z,53.14
2019-05-12T09:22:52.816Z,48.41
2019-05-12T09:27:54.328Z,48.19
2019-05-12T09:32:58.075Z,42.82
2019-05-12T09:38:03.685Z,43.18
2019-05-12T09:43:10.830Z,46.57
2019-05-12T09:48:24.540Z,44.17
2019-05-12T09:53:27.595Z,43.19
2019-05-12T09:58:31.089Z,39.74
2019-05-12T10:03:38.410Z,44.21
2019-05-12T10:08:39.927Z,41.83
2019-05-12T10:13:44.934Z,38.42
2019-05-12T10:18:51.197Z,39.91
2019-05-12T10:24:00.189Z,39.82
2019-05-12T10:29:13.359Z,40.19
2019-05-12T10:34:17.963Z,39.28
2019-05-12T10:39:24.335Z,39.66
2019-05-12T10:44:30.029Z,39.53
2019-05-12T10:49:33.776Z,37.95
2019-05-12T10:54:39.434Z,38.40
2019-05-12T10:59:45.159Z,36.30
2019-05-12T11:04:47.723Z,41.24
2019-05-12T11:09:51.150Z,39.42
2019-05-12T11:14:54.648Z,34.77
2019-05-12T11:19:58.074Z,38.56
2019-05-12T11:25:04.099Z,40.40
2019-05-12T11:30:07.409Z,35.24
2019-05-12T11:35:11.149Z,36.62
2019-05-12T11:40:14.723Z,37.03
2019-05-12T11:45:19.142Z,36.45
2019-05-12T11:50:22.686Z,38.69
2019-05-12T11:55:29.873Z,36.06
2019-05-12T12:00:33.650Z,35.54
2019-05-12T12:05:38.352Z,37.72
2019-05-12T12:10:42.245Z,34.26
2019-05-12T12:15:45.646Z,33.52
2019-05-12T12:20:55.101Z,35.32
2019-05-12T12:25:55.925Z,34.27
2019-05-12T12:31:01.906Z,35.08
2019-05-12T12:36:07.611Z,35.03
2019-05-12T12:41:13.104Z,38.50
2019-05-12T12:46:21.390Z,39.74
2019-05-12T12:51:26.156Z,40.85
2019-05-12T12:56:30.399Z,41.60
2019-05-12T13:01:35.738Z,41.16
2019-05-12T13:06:39.631Z,40.86
2019-05-12T13:11:44.500Z,38.98
2019-05-12T13:16:49.317Z,39.39
2019-05-12T13:21:53.753Z,39.63
2019-05-12T13:26:57.496Z,37.12
2019-05-12T13:32:03.197Z,39.70
2019-05-12T13:37:09.439Z,41.79
2019-05-12T13:42:13.328Z,42.52
2019-05-12T13:47:18.010Z,42.16
2019-05-12T13:52:26.345Z,42.47
2019-05-12T13:57:28.430Z,42.14
2019-05-12T14:02:33.614Z,43.14
2019-05-12T14:07:37.048Z,43.24
2019-05-12T14:12:40.733Z,43.35
2019-05-12T14:17:44.161Z,40.27
2019-05-12T14:22:47.869Z,41.52
2019-05-12T14:27:53.549Z,40.91
2019-05-12T14:32:59.176Z,40.56
2019-05-12T14:38:03.818Z,39.70
2019-05-12T14:43:10.469Z,40.02
2019-05-12T14:48:13.692Z,40.98
2019-05-12T14:53:17.385Z,42.13
2019-05-12T14:58:21.423Z,42.99
2019-05-12T15:03:26.042Z,43.41
2019-05-12T15:08:36.217Z,41.74
2019-05-12T15:13:34.793Z,39.68
2019-05-12T15:18:39.455Z,38.45
2019-05-12T15:23:44.243Z,40.47
2019-05-12T15:28:47.811Z,40.43
2019-05-12T15:33:51.391Z,39.68
2019-05-12T15:38:58.737Z,38.81
2019-05-12T15:44:00.096Z,38.92
2019-05-12T15:49:03.575Z,38.11
2019-05-12T15:54:11.667Z,38.76
2019-05-12T15:59:14.616Z,39.62
2019-05-12T16:04:17.329Z,36.71
2019-05-12T16:09:20.929Z,35.89
2019-05-12T16:14:24.423Z,34.61
2019-05-12T16:19:27.868Z,36.57
2019-05-12T16:24:31.466Z,39.37
2019-05-12T16:29:38.999Z,41.58
2019-05-12T16:34:44.888Z,42.42
2019-05-12T16:39:47.525Z,40.88
2019-05-12T16:44:56.118Z,39.81
2019-05-12T16:49:56.229Z,40.23
2019-05-12T16:54:59.716Z,41.44
2019-05-12T17:00:07.007Z,42.72
2019-05-12T17:05:15.698Z,42.20
2019-05-12T17:10:16.964Z,41.61
2019-05-12T17:15:20.573Z,42.10
2019-05-12T17:20:23.993Z,40.79
2019-05-12T17:25:27.502Z,42.44
2019-05-12T17:30:30.910Z,42.90
2019-05-12T17:35:35.169Z,43.00
2019-05-12T17:40:39.083Z,44.25
2019-05-12T17:45:44.290Z,44.69
2019-05-12T17:50:50.456Z,44.75
2019-05-12T17:55:53.989Z,45.48
2019-05-12T18:00:58.953Z,45.92
2019-05-12T18:06:04.092Z,46.85
2019-05-12T18:11:11.431Z,46.81
2019-05-12T18:16:20.465Z,47.57
2019-05-12T18:21:21.817Z,46.85
2019-05-12T18:26:24.697Z,46.80
2019-05-12T18:31:28.180Z,47.03
2019-05-12T18:36:34.071Z,46.88
2019-05-12T18:41:38.424Z,46.47
2019-05-12T18:46:45.035Z,46.53
2019-05-12T18:51:49.257Z,45.29
2019-05-12T18:57:02.105Z,46.52
2019-05-12T19:02:03.461Z,47.45
2019-05-12T19:07:04.943Z,46.47
2019-05-12T19:12:16.205Z,46.93
2019-05-12T19:17:14.689Z,47.45
2019-05-12T19:22:18.295Z,47.51
2019-05-12T19:27:23.942Z,47.53
2019-05-12T19:32:28.341Z,47.71
2019-05-12T19:37:33.666Z,47.84
2019-05-12T19:42:37.299Z,47.19
2019-05-12T19:47:40.737Z,48.15
2019-05-12T19:52:44.228Z,48.12
2019-05-12T19:57:50.105Z,49.34
2019-05-12T20:02:53.797Z,49.48
2019-05-12T20:07:57.392Z,50.04
2019-05-12T20:13:00.838Z,51.23
2019-05-12T20:18:04.467Z,50.14
2019-05-12T20:23:07.895Z,51.48
2019-05-12T20:28:13.854Z,52.02
2019-05-12T20:33:16.644Z,52.79
2019-05-12T20:38:27.124Z,52.89
2019-05-12T20:43:32.459Z,53.15
2019-05-12T20:48:31.447Z,53.98
2019-05-12T20:53:36.682Z,54.44
2019-05-12T20:58:43.709Z,55.22
2019-05-12T21:03:50.752Z,55.74
2019-05-12T21:08:53.473Z,56.30
2019-05-12T21:13:55.881Z,56.92
2019-05-12T21:19:09.972Z,57.31
2019-05-12T21:24:06.708Z,58.08
2019-05-12T21:29:10.153Z,58.58
2019-05-12T21:34:21.299Z,59.17
2019-05-12T21:39:18.834Z,58.10
2019-05-12T21:44:24.413Z,58.75
2019-05-12T21:49:27.421Z,59.83
2019-05-12T21:54:35.941Z,60.13
2019-05-12T21:59:39.607Z,61.17
2019-05-12T22:04:42.684Z,62.35
2019-05-12T22:09:48.153Z,63.15
2019-05-12T22:14:54.175Z,64.07
2019-05-12T22:19:56.814Z,64.75
2019-05-12T22:25:00.271Z,64.31
2019-05-12T22:30:05.163Z,63.56
2019-05-12T22:35:13.311Z,64.27
2019-05-12T22:40:19.085Z,63.98
2019-05-12T22:45:19.664Z,64.82
2019-05-12T22:50:27.186Z,65.30
2019-05-12T22:55:32.557Z,66.85
2019-05-12T23:00:34.332Z,68.97
2019-05-12T23:05:37.936Z,70.51
2019-05-12T23:10:51.344Z,70.74
2019-05-12T23:15:49.364Z,71.28
2019-05-12T23:20:53.997Z,71.09
2019-05-12T23:26:00.317Z,70.82
2019-05-12T23:31:04.130Z,71.24
2019-05-12T23:36:09.557Z,71.38
2019-05-12T23:41:13.527Z,71.48
2019-05-12T23:46:17.168Z,71.92
2019-05-12T23:51:20.601Z,72.27
2019-05-12T23:56:24.137Z,72.60
